| time (UTC) | temp C | wind direction | speed KPH | gust KPH | rain 1hr cm | rain 24hr cm | rain mn cm | humidity % | barometer mb |
| 20260504174150 | 26 | 201 | 1.6 | 1.6 | 0.00 | 0.00 | 0.00 | 48 | 1016.2 |
| 20260504173647 | 26 | 75 | 1.6 | 3.2 | 0.00 | 0.00 | 0.00 | 51 | 1015.8 |
| 20260504173144 | 26 | 99 | 1.6 | 1.6 | 0.00 | 0.00 | 0.00 | 46 | 1015.8 |
| 20260504172641 | 26 | 151 | 3.2 | 3.2 | 0.00 | 0.00 | 0.00 | 50 | 1016.2 |
| 20260504172137 | 26 | 99 | 1.6 | 3.2 | 0.00 | 0.00 | 0.00 | 53 | 1016.2 |
| 20260504171634 | 26 | 319 | 1.6 | 1.6 | 0.00 | 0.00 | 0.00 | 48 | 1016.2 |
| 20260504171131 | 26 | 222 | 1.6 | 1.6 | 0.00 | 0.00 | 0.00 | 45 | 1016.2 |
| 20260504170627 | 25 | 173 | 1.6 | 1.6 | 0.00 | 0.00 | 0.00 | 53 | 1016.2 |
| 20260504170125 | 26 | 124 | 1.6 | 1.6 | 0.00 | 0.00 | 0.00 | 50 | 1016.2 |
| 20260504151010 | 23 | 133 | 1.6 | 1.6 | 0.00 | 0.00 | 0.00 | 66 | 1017.2 |
| 20260504150508 | 23 | 135 | 0.0 | 1.6 | 0.00 | 0.00 | 0.00 | 62 | 1017.2 |
| 20260504140934 | 20 | 132 | 0.0 | 0.0 | 0.00 | 0.00 | 0.00 | 76 | 1017.5 |
| 20260504140430 | 20 | 136 | 0.0 | 0.0 | 0.00 | 0.00 | 0.00 | 82 | 1017.5 |
| 20260504130355 | 11 | 179 | 0.0 | 0.0 | 0.00 | 0.00 | 0.00 | 99 | 1017.2 |
| 20260504120318 | 8 | 179 | 0.0 | 0.0 | 0.00 | 0.00 | 0.00 | 99 | 1017.2 |
| 20260504110242 | 8 | 165 | 0.0 | 0.0 | 0.00 | 0.00 | 0.00 | 99 | 1016.9 |
| 20260504100200 | 8 | 159 | 0.0 | 0.0 | 0.00 | 0.00 | 0.00 | 99 | 1016.9 |
| 20260504090122 | 10 | 159 | 0.0 | 0.0 | 0.00 | 0.00 | 0.00 | 99 | 1016.9 |
| 20260504081552 | 10 | 159 | 0.0 | 0.0 | 0.00 | 0.00 | 0.00 | 99 | 1016.5 |
| 20260504081048 | 10 | 159 | 0.0 | 0.0 | 0.00 | 0.00 | 0.00 | 99 | 1016.9 |
| 20260504080545 | 10 | 159 | 0.0 | 0.0 | 0.00 | 0.00 | 0.00 | 99 | 1016.9 |
| 20260504050358 | 11 | 178 | 0.0 | 0.0 | 0.00 | 0.00 | 0.00 | 99 | 1018.2 |
| 20260504045855 | 11 | 178 | 0.0 | 0.0 | 0.00 | 0.00 | 0.00 | 99 | 1018.2 |
| 20260504045350 | 11 | 178 | 0.0 | 0.0 | 0.00 | 0.00 | 0.00 | 99 | 1017.9 |
| 20260504044847 | 11 | 178 | 0.0 | 0.0 | 0.00 | 0.00 | 0.00 | 99 | 1018.2 |
| 20260504044344 | 11 | 178 | 0.0 | 0.0 | 0.00 | 0.00 | 0.00 | 99 | 1018.2 |
| 20260504043842 | 11 | 178 | 0.0 | 0.0 | 0.00 | 0.00 | 0.00 | 99 | 1017.9 |
| 20260504043338 | 11 | 178 | 0.0 | 0.0 | 0.00 | 0.00 | 0.00 | 99 | 1017.9 |
| 20260504042836 | 12 | 178 | 0.0 | 0.0 | 0.00 | 0.00 | 0.00 | 99 | 1017.9 |
| 20260504042332 | 12 | 178 | 0.0 | 0.0 | 0.00 | 0.00 | 0.00 | 99 | 1018.2 |
| 20260504041829 | 12 | 178 | 0.0 | 0.0 | 0.00 | 0.00 | 0.00 | 99 | 1018.2 |
| 20260504041325 | 12 | 178 | 0.0 | 0.0 | 0.00 | 0.00 | 0.00 | 98 | 1017.9 |
| 20260504040821 | 12 | 178 | 0.0 | 0.0 | 0.00 | 0.00 | 0.00 | 98 | 1018.2 |
| 20260504040319 | 12 | 179 | 0.0 | 0.0 | 0.00 | 0.00 | 0.00 | 98 | 1018.2 |
| 20260504035814 | 12 | 179 | 0.0 | 0.0 | 0.00 | 0.00 | 0.00 | 98 | 1018.2 |
| 20260504035312 | 12 | 179 | 0.0 | 0.0 | 0.00 | 0.00 | 0.00 | 98 | 1018.5 |
| 20260504034809 | 12 | 175 | 0.0 | 0.0 | 0.00 | 0.00 | 0.00 | 98 | 1018.2 |
| 20260504034307 | 12 | 174 | 0.0 | 0.0 | 0.00 | 0.00 | 0.00 | 98 | 1018.2 |
| 20260504033804 | 12 | 174 | 0.0 | 0.0 | 0.00 | 0.00 | 0.00 | 98 | 1018.5 |
| 20260504033301 | 12 | 174 | 0.0 | 0.0 | 0.00 | 0.00 | 0.00 | 98 | 1018.2 |
| 20260504032758 | 12 | 174 | 0.0 | 0.0 | 0.00 | 0.00 | 0.00 | 97 | 1018.5 |
| 20260504032255 | 12 | 174 | 0.0 | 0.0 | 0.00 | 0.00 | 0.00 | 97 | 1018.5 |
| 20260504031752 | 12 | 174 | 0.0 | 0.0 | 0.00 | 0.00 | 0.00 | 97 | 1018.2 |
| 20260504031249 | 12 | 174 | 0.0 | 0.0 | 0.00 | 0.00 | 0.00 | 97 | 1018.5 |
| 20260504030745 | 12 | 174 | 0.0 | 0.0 | 0.00 | 0.00 | 0.00 | 97 | 1018.5 |
| 20260504030242 | 13 | 174 | 0.0 | 0.0 | 0.00 | 0.00 | 0.00 | 97 | 1018.5 |
| 20260504025738 | 13 | 174 | 0.0 | 0.0 | 0.00 | 0.00 | 0.00 | 96 | 1018.9 |
| 20260504025236 | 13 | 174 | 0.0 | 0.0 | 0.00 | 0.00 | 0.00 | 96 | 1018.9 |
| 20260504024733 | 13 | 174 | 0.0 | 0.0 | 0.00 | 0.00 | 0.00 | 96 | 1018.2 |
| 20260504024229 | 13 | 174 | 0.0 | 0.0 | 0.00 | 0.00 | 0.00 | 95 | 1018.2 |
| 20260504023726 | 13 | 174 | 0.0 | 0.0 | 0.00 | 0.00 | 0.00 | 95 | 1018.5 |
| 20260504023222 | 13 | 174 | 0.0 | 0.0 | 0.00 | 0.00 | 0.00 | 95 | 1018.2 |
| 20260504022718 | 13 | 174 | 0.0 | 0.0 | 0.00 | 0.00 | 0.00 | 95 | 1018.2 |
| 20260504022215 | 13 | 174 | 0.0 | 0.0 | 0.00 | 0.00 | 0.00 | 94 | 1018.2 |
| 20260504021712 | 13 | 175 | 0.0 | 0.0 | 0.00 | 0.00 | 0.00 | 93 | 1018.2 |
| 20260504021209 | 13 | 175 | 0.0 | 0.0 | 0.00 | 0.00 | 0.00 | 93 | 1018.2 |
| 20260504020706 | 14 | 175 | 0.0 | 0.0 | 0.00 | 0.00 | 0.00 | 92 | 1017.9 |
| 20260504020202 | 14 | 175 | 0.0 | 0.0 | 0.00 | 0.00 | 0.00 | 91 | 1017.9 |
| 20260504015658 | 14 | 175 | 0.0 | 0.0 | 0.00 | 0.00 | 0.00 | 90 | 1017.9 |
| 20260504015155 | 15 | 175 | 0.0 | 0.0 | 0.00 | 0.00 | 0.00 | 90 | 1017.9 |
| 20260504014650 | 15 | 175 | 0.0 | 0.0 | 0.00 | 0.00 | 0.00 | 89 | 1017.9 |
| 20260504014148 | 15 | 175 | 0.0 | 0.0 | 0.00 | 0.00 | 0.00 | 89 | 1017.9 |
| 20260504013646 | 15 | 175 | 0.0 | 0.0 | 0.00 | 0.00 | 0.00 | 88 | 1017.9 |
| 20260504013142 | 15 | 175 | 0.0 | 0.0 | 0.00 | 0.00 | 0.00 | 87 | 1017.9 |
| 20260504012639 | 15 | 174 | 0.0 | 0.0 | 0.00 | 0.00 | 0.00 | 88 | 1017.9 |
| 20260504012137 | 15 | 174 | 0.0 | 0.0 | 0.00 | 0.00 | 0.00 | 87 | 1017.9 |
| 20260504011634 | 16 | 174 | 0.0 | 0.0 | 0.00 | 0.00 | 0.00 | 86 | 1017.5 |
| 20260504011130 | 16 | 174 | 0.0 | 0.0 | 0.00 | 0.00 | 0.00 | 85 | 1017.9 |
| 20260504010626 | 16 | 174 | 0.0 | 0.0 | 0.00 | 0.00 | 0.00 | 83 | 1017.5 |
| 20260504010122 | 16 | 174 | 0.0 | 0.0 | 0.00 | 0.00 | 0.00 | 81 | 1017.5 |
| 20260504005619 | 16 | 174 | 0.0 | 0.0 | 0.00 | 0.00 | 0.00 | 82 | 1017.5 |
| 20260504005116 | 16 | 174 | 0.0 | 0.0 | 0.00 | 0.00 | 0.00 | 82 | 1017.5 |
| 20260504004614 | 17 | 174 | 0.0 | 0.0 | 0.00 | 0.00 | 0.00 | 83 | 1017.5 |
| 20260504004111 | 17 | 174 | 0.0 | 0.0 | 0.00 | 0.00 | 0.00 | 84 | 1017.5 |
| 20260504003607 | 17 | 174 | 0.0 | 0.0 | 0.00 | 0.00 | 0.00 | 81 | 1017.5 |
| 20260504003104 | 17 | 174 | 0.0 | 0.0 | 0.00 | 0.00 | 0.00 | 83 | 1017.2 |
| 20260504002601 | 17 | 174 | 0.0 | 0.0 | 0.00 | 0.00 | 0.00 | 79 | 1017.2 |
| 20260504002058 | 18 | 174 | 0.0 | 0.0 | 0.00 | 0.00 | 0.00 | 75 | 1017.2 |
| 20260504001556 | 18 | 174 | 0.0 | 0.0 | 0.00 | 0.00 | 0.00 | 77 | 1017.2 |
| 20260504001052 | 18 | 174 | 0.0 | 0.0 | 0.00 | 0.00 | 0.00 | 77 | 1017.5 |
| 20260504000549 | 18 | 174 | 0.0 | 0.0 | 0.00 | 0.00 | 0.00 | 78 | 1017.2 |
| 20260504000047 | 19 | 174 | 0.0 | 0.0 | 0.00 | 0.00 | 0.00 | 75 | 1017.2 |
| 20260503235545 | 20 | 174 | 0.0 | 0.0 | 0.00 | 0.00 | 0.00 | 76 | 1017.2 |
| 20260503235041 | 20 | 174 | 0.0 | 0.0 | 0.00 | 0.00 | 0.00 | 71 | 1017.2 |
| 20260503234539 | 20 | 174 | 0.0 | 0.0 | 0.00 | 0.00 | 0.00 | 69 | 1016.9 |
| 20260503234037 | 20 | 174 | 0.0 | 0.0 | 0.00 | 0.00 | 0.00 | 68 | 1017.2 |
| 20260503233533 | 20 | 175 | 0.0 | 0.0 | 0.00 | 0.00 | 0.00 | 65 | 1017.2 |
| 20260503233029 | 21 | 175 | 0.0 | 1.6 | 0.00 | 0.00 | 0.00 | 75 | 1017.2 |
| 20260503232526 | 21 | 175 | 0.0 | 0.0 | 0.00 | 0.00 | 0.00 | 72 | 1017.2 |
| 20260503232024 | 21 | 175 | 0.0 | 0.0 | 0.00 | 0.00 | 0.00 | 70 | 1017.9 |
| 20260503231522 | 21 | 175 | 0.0 | 0.0 | 0.00 | 0.00 | 0.00 | 71 | 1017.5 |
| 20260503231018 | 21 | 175 | 0.0 | 0.0 | 0.00 | 0.00 | 0.00 | 73 | 1017.5 |
| 20260503230515 | 21 | 175 | 0.0 | 0.0 | 0.00 | 0.00 | 0.00 | 67 | 1017.5 |
| 20260503230012 | 21 | 176 | 0.0 | 1.6 | 0.00 | 0.00 | 0.00 | 71 | 1017.2 |
| 20260503225509 | 21 | 170 | 0.0 | 0.0 | 0.00 | 0.00 | 0.00 | 61 | 1017.5 |
| 20260503225004 | 21 | 170 | 0.0 | 0.0 | 0.00 | 0.00 | 0.00 | 63 | 1017.5 |
| 20260503224501 | 21 | 171 | 0.0 | 0.0 | 0.00 | 0.00 | 0.00 | 59 | 1017.5 |
| 20260503223959 | 21 | 171 | 0.0 | 0.0 | 0.00 | 0.00 | 0.00 | 59 | 1017.5 |
| 20260503223457 | 21 | 118 | 0.0 | 1.6 | 0.00 | 0.00 | 0.00 | 62 | 1017.9 |
| 20260503222952 | 21 | 185 | 0.0 | 0.0 | 0.00 | 0.00 | 0.00 | 52 | 1017.5 |
| 20260503222451 | 22 | 185 | 0.0 | 0.0 | 0.00 | 0.00 | 0.00 | 51 | 1017.5 |
| 20260503221949 | 22 | 187 | 1.6 | 1.6 | 0.00 | 0.00 | 0.00 | 54 | 1017.9 |
| 20260503221447 | 22 | 38 | 1.6 | 1.6 | 0.00 | 0.00 | 0.00 | 55 | 1017.5 |
| 20260503220943 | 22 | 38 | 1.6 | 1.6 | 0.00 | 0.00 | 0.00 | 60 | 1017.9 |
| 20260503220439 | 22 | 37 | 0.0 | 1.6 | 0.00 | 0.00 | 0.00 | 57 | 1017.9 |
| 20260503215937 | 23 | 127 | 0.0 | 0.0 | 0.00 | 0.00 | 0.00 | 55 | 1017.9 |
| 20260503215433 | 23 | 110 | 1.6 | 1.6 | 0.00 | 0.00 | 0.00 | 49 | 1017.5 |
| 20260503214931 | 25 | 110 | 1.6 | 1.6 | 0.00 | 0.00 | 0.00 | 44 | 1017.9 |
| 20260503214429 | 25 | 203 | 0.0 | 0.0 | 0.00 | 0.00 | 0.00 | 41 | 1017.9 |
| 20260503213926 | 26 | 228 | 0.0 | 0.0 | 0.00 | 0.00 | 0.00 | 38 | 1017.9 |
| 20260503213424 | 26 | 228 | 0.0 | 1.6 | 0.00 | 0.00 | 0.00 | 47 | 1017.9 |
| 20260503212920 | 26 | 222 | 0.0 | 0.0 | 0.00 | 0.00 | 0.00 | 45 | 1017.9 |
| 20260503212418 | 26 | 246 | 1.6 | 1.6 | 0.00 | 0.00 | 0.00 | 38 | 1017.9 |
| 20260503211915 | 26 | 238 | 1.6 | 1.6 | 0.00 | 0.00 | 0.00 | 40 | 1018.2 |
| 20260503211412 | 26 | 238 | 1.6 | 1.6 | 0.00 | 0.00 | 0.00 | 40 | 1018.5 |
| 20260503210907 | 26 | 237 | 0.0 | 0.0 | 0.00 | 0.00 | 0.00 | 48 | 1018.2 |
| 20260503210404 | 26 | 136 | 1.6 | 1.6 | 0.00 | 0.00 | 0.00 | 37 | 1018.5 |
| 20260503205859 | 26 | 5 | 0.0 | 0.0 | 0.00 | 0.00 | 0.00 | 48 | 1018.5 |
| 20260503205356 | 26 | 276 | 0.0 | 1.6 | 0.00 | 0.00 | 0.00 | 48 | 1018.9 |
| 20260503204852 | 27 | 179 | 0.0 | 1.6 | 0.00 | 0.00 | 0.00 | 50 | 1018.9 |
| 20260503204349 | 26 | 358 | 0.0 | 0.0 | 0.00 | 0.00 | 0.00 | 45 | 1018.9 |
| 20260503203847 | 26 | 182 | 1.6 | 1.6 | 0.00 | 0.00 | 0.00 | 41 | 1018.9 |
| 20260503203344 | 26 | 214 | 0.0 | 0.0 | 0.00 | 0.00 | 0.00 | 43 | 1018.9 |
| 20260503202841 | 26 | 124 | 3.2 | 3.2 | 0.00 | 0.00 | 0.00 | 37 | 1019.2 |
| 20260503202339 | 26 | 148 | 3.2 | 4.8 | 0.00 | 0.00 | 0.00 | 38 | 1019.2 |
| 20260503201837 | 26 | 241 | 1.6 | 1.6 | 0.00 | 0.00 | 0.00 | 39 | 1019.2 |
| 20260503201333 | 26 | 200 | 1.6 | 1.6 | 0.00 | 0.00 | 0.00 | 44 | 1019.2 |
| 20260503200832 | 26 | 356 | 1.6 | 3.2 | 0.00 | 0.00 | 0.00 | 45 | 1019.2 |
| 20260503200327 | 26 | 336 | 1.6 | 1.6 | 0.00 | 0.00 | 0.00 | 41 | 1019.6 |
| 20260503195825 | 26 | 85 | 0.0 | 1.6 | 0.00 | 0.00 | 0.00 | 42 | 1019.6 |
| 20260503195321 | 26 | 281 | 1.6 | 3.2 | 0.00 | 0.00 | 0.00 | 41 | 1019.6 |
| 20260503194819 | 26 | 1 | 3.2 | 3.2 | 0.00 | 0.00 | 0.00 | 45 | 1019.9 |
| 20260503194314 | 26 | 174 | 0.0 | 0.0 | 0.00 | 0.00 | 0.00 | 40 | 1019.6 |
| 20260503193810 | 26 | 31 | 0.0 | 0.0 | 0.00 | 0.00 | 0.00 | 50 | 1019.9 |
| 20260503193307 | 25 | 94 | 6.4 | 9.7 | 0.00 | 0.00 | 0.00 | 38 | 1019.9 |
| 20260503192802 | 26 | 144 | 1.6 | 1.6 | 0.00 | 0.00 | 0.00 | 42 | 1019.9 |
| 20260503192258 | 26 | 144 | 3.2 | 3.2 | 0.00 | 0.00 | 0.00 | 49 | 1019.9 |
| 20260503191754 | 26 | 129 | 1.6 | 1.6 | 0.00 | 0.00 | 0.00 | 41 | 1019.6 |
| 20260503191252 | 26 | 130 | 1.6 | 3.2 | 0.00 | 0.00 | 0.00 | 42 | 1019.9 |
| 20260503190748 | 26 | 208 | 1.6 | 3.2 | 0.00 | 0.00 | 0.00 | 48 | 1020.2 |
| 20260503190245 | 26 | 118 | 1.6 | 1.6 | 0.00 | 0.00 | 0.00 | 42 | 1020.2 |
| 20260503185743 | 25 | 215 | 1.6 | 1.6 | 0.00 | 0.00 | 0.00 | 42 | 1020.2 |
| 20260503185238 | 25 | 215 | 3.2 | 3.2 | 0.00 | 0.00 | 0.00 | 44 | 1020.2 |
| 20260503184733 | 25 | 213 | 1.6 | 1.6 | 0.00 | 0.00 | 0.00 | 39 | 1020.6 |
| 20260503184230 | 25 | 122 | 1.6 | 1.6 | 0.00 | 0.00 | 0.00 | 42 | 1020.6 |
| 20260503183726 | 25 | 121 | 3.2 | 3.2 | 0.00 | 0.00 | 0.00 | 48 | 1020.6 |
| 20260503183223 | 25 | 123 | 0.0 | 0.0 | 0.00 | 0.00 | 0.00 | 41 | 1020.6 |
| 20260503182721 | 25 | 125 | 4.8 | 8.0 | 0.00 | 0.00 | 0.00 | 36 | 1020.6 |
| 20260503182220 | 26 | 120 | 1.6 | 3.2 | 0.00 | 0.00 | 0.00 | 39 | 1020.6 |
| 20260503181716 | 25 | 120 | 1.6 | 1.6 | 0.00 | 0.00 | 0.00 | 46 | 1020.6 |
| 20260503181213 | 25 | 120 | 1.6 | 1.6 | 0.00 | 0.00 | 0.00 | 37 | 1020.9 |
| 20260503180709 | 25 | 120 | 1.6 | 3.2 | 0.00 | 0.00 | 0.00 | 41 | 1020.9 |
| 20260503180208 | 25 | 116 | 1.6 | 1.6 | 0.00 | 0.00 | 0.00 | 42 | 1020.9 |
| 20260503175704 | 25 | 117 | 1.6 | 1.6 | 0.00 | 0.00 | 0.00 | 38 | 1021.3 |
| 20260503175202 | 25 | 114 | 3.2 | 3.2 | 0.00 | 0.00 | 0.00 | 40 | 1021.3 |
| 20260503174658 | 25 | 117 | 3.2 | 4.8 | 0.00 | 0.00 | 0.00 | 41 | 1021.3 |